Time;durP1;ratioP1;P1;durP2;ratioP2;P2;SDS_P1;SDS_P2;PMS_P1;PMS_P2;Temp;Humidity;BMP_temperature;BMP_pressure;BME280_temperature;BME280_humidity;BME280_pressure;Samples;Min_cycle;Max_cycle;Signal;HPM_P1;HPM_P2
2023/07/07 04:22:33;;;;;;;4.22;1.83;;;;;;;13.83;92.52;100500.78;5092281;28;20883;-70
2023/07/07 04:25:13;;;;;;;5.72;2.00;;;;;;;13.84;91.53;100497.06;5093206;28;20048;-69
2023/07/07 04:27:39;;;;;;;3.03;1.88;;;;;;;13.85;91.33;100497.91;5072803;28;20047;-69
2023/07/07 04:30:05;;;;;;;2.63;1.90;;;;;;;13.92;91.03;100506.00;5072964;28;20092;-69
2023/07/07 04:32:32;;;;;;;3.35;1.90;;;;;;;13.95;90.61;100505.63;5071237;28;20044;-69
2023/07/07 04:35:01;;;;;;;3.95;2.08;;;;;;;14.01;90.04;100512.91;5074219;28;20033;-68
2023/07/07 04:37:27;;;;;;;4.63;1.90;;;;;;;14.07;89.50;100507.63;5080578;28;20068;-68
2023/07/07 04:39:53;;;;;;;2.25;1.73;;;;;;;14.11;88.90;100508.09;5078950;28;20044;-69
2023/07/07 04:42:19;;;;;;;2.85;2.13;;;;;;;14.13;89.02;100512.22;5084158;28;20025;-64
2023/07/07 04:44:45;;;;;;;2.80;2.10;;;;;;;14.13;88.54;100504.19;5082029;28;20044;-69
2023/07/07 04:47:13;;;;;;;3.55;2.10;;;;;;;14.17;88.42;100501.97;5085801;28;20076;-68
2023/07/07 04:49:38;;;;;;;3.85;2.17;;;;;;;14.23;88.58;100503.88;5103621;28;20031;-69
2023/07/07 04:52:04;;;;;;;4.68;2.65;;;;;;;14.31;88.04;100506.44;5077294;28;20398;-67
2023/07/07 04:54:30;;;;;;;8.20;3.15;;;;;;;14.42;87.75;100515.00;5073481;28;20048;-69
2023/07/07 04:56:55;;;;;;;3.88;2.38;;;;;;;14.53;87.47;100515.31;5075939;28;20052;-68
2023/07/07 04:59:20;;;;;;;5.63;3.03;;;;;;;14.53;87.00;100509.13;5081103;28;20126;-66
2023/07/07 05:01:46;;;;;;;3.75;2.45;;;;;;;14.61;86.36;100504.47;5082786;28;20477;-69
2023/07/07 05:04:12;;;;;;;3.85;2.17;;;;;;;14.71;85.65;100511.34;5076715;28;20037;-69
2023/07/07 05:06:39;;;;;;;3.00;2.08;;;;;;;14.76;84.85;100509.75;5073491;28;20044;-70
2023/07/07 05:09:06;;;;;;;4.18;2.88;;;;;;;14.76;84.71;100504.38;5075774;28;20040;-69
2023/07/07 05:11:33;;;;;;;2.20;1.70;;;;;;;14.87;83.35;100514.59;5071764;28;20075;-69
2023/07/07 05:13:59;;;;;;;2.75;1.88;;;;;;;14.90;83.54;100511.50;5075847;28;20067;-66
2023/07/07 05:16:29;;;;;;;3.28;2.00;;;;;;;14.76;82.68;100480.25;5082237;28;20036;-69
2023/07/07 05:18:55;;;;;;;1.83;1.52;;;;;;;15.10;82.50;100513.50;5078535;28;20045;-68
2023/07/07 05:21:23;;;;;;;3.03;1.80;;;;;;;15.17;81.56;100514.38;5057034;28;20119;-68
2023/07/07 05:23:51;;;;;;;3.53;2.20;;;;;;;15.27;81.32;100519.41;5050136;28;20095;-64
2023/07/07 05:26:17;;;;;;;2.95;1.92;;;;;;;15.40;80.25;100516.81;5047936;28;20505;-64
2023/07/07 05:28:42;;;;;;;3.75;1.90;;;;;;;15.47;79.51;100517.66;5062073;28;20032;-65
2023/07/07 05:31:08;;;;;;;4.00;2.08;;;;;;;15.54;79.38;100523.88;5088102;28;20429;-64
2023/07/07 05:33:34;;;;;;;1.75;1.50;;;;;;;15.64;78.88;100520.84;5076539;28;20085;-65
2023/07/07 05:36:02;;;;;;;5.22;2.08;;;;;;;15.73;77.13;100509.75;5074476;28;20374;-65
2023/07/07 05:38:28;;;;;;;4.88;2.35;;;;;;;15.78;76.43;100517.22;5074202;28;20040;-65
2023/07/07 05:40:54;;;;;;;2.30;1.63;;;;;;;15.84;76.78;100519.06;5074426;28;20033;-65
2023/07/07 05:43:21;;;;;;;3.28;2.08;;;;;;;15.96;75.80;100516.66;5074423;28;20085;-65
2023/07/07 05:45:47;;;;;;;3.10;2.17;;;;;;;16.05;74.95;100517.31;5074261;28;20056;-65
2023/07/07 05:48:14;;;;;;;3.25;2.35;;;;;;;16.10;74.79;100512.13;5074305;28;20445;-62
2023/07/07 05:50:41;;;;;;;2.92;2.13;;;;;;;16.24;73.62;100519.22;5073965;28;20039;-62
2023/07/07 05:53:07;;;;;;;4.00;2.38;;;;;;;16.30;73.41;100521.09;5074336;28;20037;-62
2023/07/07 05:55:34;;;;;;;3.85;2.28;;;;;;;16.32;73.38;100523.56;5074097;28;20028;-61
2023/07/07 05:58:04;;;;;;;3.13;2.08;;;;;;;16.44;72.25;100528.16;5074334;28;20041;-61
2023/07/07 06:00:33;;;;;;;3.70;2.15;;;;;;;16.53;72.90;100528.78;5055808;28;20033;-61
2023/07/07 06:02:59;;;;;;;2.42;1.77;;;;;;;16.80;72.31;100532.31;5054082;28;20063;-62
2023/07/07 06:05:26;;;;;;;3.47;2.13;;;;;;;16.92;73.34;100536.06;5054415;28;20101;-62
2023/07/07 06:07:53;;;;;;;5.40;2.10;;;;;;;17.00;71.01;100530.44;5054142;28;20087;-63
2023/07/07 06:10:18;;;;;;;4.40;2.00;;;;;;;17.06;71.18;100526.94;5053606;28;20116;-63
2023/07/07 06:12:44;;;;;;;3.92;1.88;;;;;;;17.20;70.26;100527.75;5053993;28;20171;-63
2023/07/07 06:15:10;;;;;;;3.35;2.00;;;;;;;17.28;69.28;100534.78;5053763;28;20037;-62
2023/07/07 06:17:36;;;;;;;3.25;1.83;;;;;;;17.26;69.40;100523.38;5053709;28;20036;-63
2023/07/07 06:20:02;;;;;;;3.97;1.83;;;;;;;17.33;69.94;100532.28;5053440;28;20044;-63
2023/07/07 06:22:27;;;;;;;3.03;1.80;;;;;;;17.43;70.77;100521.09;5053591;28;20055;-63
2023/07/07 06:24:53;;;;;;;3.40;2.13;;;;;;;17.41;72.06;100518.59;5053681;28;20474;-62
2023/07/07 06:27:19;;;;;;;3.40;2.25;;;;;;;17.40;71.93;100516.09;5053452;28;20032;-62
2023/07/07 06:29:44;;;;;;;3.22;1.92;;;;;;;17.47;73.27;100520.41;5053292;28;20047;-62
2023/07/07 06:32:10;;;;;;;4.95;2.13;;;;;;;17.56;72.11;100529.13;5053378;28;20044;-61
2023/07/07 06:34:35;;;;;;;3.88;2.22;;;;;;;17.69;70.42;100526.38;5053581;28;20037;-62
2023/07/07 06:37:01;;;;;;;4.40;2.08;;;;;;;17.78;70.14;100535.91;5053328;28;20095;-61
2023/07/07 06:39:27;;;;;;;3.55;2.50;;;;;;;17.84;71.70;100532.34;5053245;28;20045;-62
2023/07/07 06:41:56;;;;;;;3.20;2.30;;;;;;;17.93;70.60;100535.66;5053296;28;20047;-58
2023/07/07 06:44:23;;;;;;;4.05;2.17;;;;;;;18.00;70.54;100543.69;5051002;28;20555;-61
2023/07/07 06:46:49;;;;;;;4.68;2.50;;;;;;;18.14;69.18;100551.50;5053147;28;20033;-61
2023/07/07 06:49:14;;;;;;;3.13;2.17;;;;;;;18.22;70.45;100536.94;5053223;28;20056;-61
2023/07/07 06:51:39;;;;;;;5.25;2.30;;;;;;;18.30;70.68;100541.25;5053052;28;20040;-61
2023/07/07 06:54:05;;;;;;;4.68;2.28;;;;;;;18.48;69.60;100544.03;5052958;28;20036;-61
2023/07/07 06:56:30;;;;;;;4.25;2.30;;;;;;;18.67;68.33;100544.97;5052983;28;20040;-60
2023/07/07 06:58:55;;;;;;;3.20;2.22;;;;;;;18.73;67.42;100546.81;5052682;28;20050;-61
2023/07/07 07:01:21;;;;;;;2.83;2.10;;;;;;;18.84;65.40;100550.63;5053046;28;20115;-61
2023/07/07 07:03:46;;;;;;;4.15;2.50;;;;;;;18.86;66.43;100552.09;5052872;28;20498;-62
2023/07/07 07:06:12;;;;;;;2.92;2.03;;;;;;;18.97;67.14;100537.88;5052792;28;20052;-60
2023/07/07 07:08:38;;;;;;;3.35;2.20;;;;;;;19.14;64.65;100550.81;5052495;28;20044;-60
2023/07/07 07:11:03;;;;;;;3.85;2.03;;;;;;;19.21;65.36;100544.28;5052630;28;20041;-61
2023/07/07 07:13:29;;;;;;;4.43;2.58;;;;;;;19.27;64.36;100539.88;5052667;28;20474;-62
2023/07/07 07:15:55;;;;;;;2.97;2.38;;;;;;;19.38;64.23;100541.84;5052566;28;20114;-61
2023/07/07 07:18:21;;;;;;;4.30;2.63;;;;;;;19.56;63.96;100543.75;5052361;28;20032;-62
2023/07/07 07:20:51;;;;;;;6.90;2.67;;;;;;;19.64;63.47;100537.25;5052355;28;20574;-60
2023/07/07 07:23:17;;;;;;;8.45;2.40;;;;;;;19.76;62.87;100547.06;5052650;28;20493;-62
2023/07/07 07:25:44;;;;;;;3.13;2.22;;;;;;;19.84;64.09;100545.94;5052304;28;20075;-61
2023/07/07 07:28:11;;;;;;;3.35;2.13;;;;;;;19.96;63.93;100546.81;5052540;28;20049;-61
2023/07/07 07:30:37;;;;;;;4.43;2.42;;;;;;;20.10;61.88;100544.75;5052081;28;20041;-60
2023/07/07 07:33:04;;;;;;;4.40;2.40;;;;;;;20.18;61.89;100547.16;5052530;28;20521;-61
2023/07/07 07:35:30;;;;;;;3.70;2.47;;;;;;;20.26;62.51;100540.59;5052224;28;20037;-61
2023/07/07 07:37:55;;;;;;;3.47;2.42;;;;;;;20.43;63.17;100533.47;5052159;28;20039;-62
2023/07/07 07:40:23;;;;;;;4.65;2.30;;;;;;;20.56;61.22;100532.47;5051843;28;20498;-62
2023/07/07 07:42:49;;;;;;;4.47;2.22;;;;;;;20.71;60.22;100527.44;5052207;28;20056;-62
2023/07/07 07:45:18;;;;;;;4.90;2.40;;;;;;;20.83;59.75;100522.06;5052045;28;20127;-62
2023/07/07 07:47:44;;;;;;;3.50;2.40;;;;;;;20.95;58.56;100525.59;5052467;28;20584;-60
2023/07/07 07:50:10;;;;;;;4.90;2.63;;;;;;;21.04;58.14;100526.88;5051779;28;20062;-60
2023/07/07 07:52:36;;;;;;;7.53;2.65;;;;;;;21.20;58.21;100532.66;5051834;28;20072;-61
2023/07/07 07:55:01;;;;;;;4.95;2.78;;;;;;;21.28;56.58;100530.44;5051781;28;20508;-62
2023/07/07 07:57:26;;;;;;;5.43;2.97;;;;;;;21.38;55.97;100533.38;5051829;28;20045;-62
2023/07/07 07:59:52;;;;;;;6.00;2.42;;;;;;;21.46;56.99;100534.09;5051692;28;20086;-60
2023/07/07 08:02:18;;;;;;;4.90;2.40;;;;;;;21.54;56.31;100531.00;5051944;28;20044;-60
2023/07/07 08:04:43;;;;;;;5.32;2.85;;;;;;;21.72;55.49;100530.84;5051953;28;20037;-62
2023/07/07 08:07:09;;;;;;;6.53;3.03;;;;;;;21.85;54.54;100536.00;5051820;28;20052;-62
2023/07/07 08:09:35;;;;;;;4.57;2.80;;;;;;;21.89;55.51;100534.44;5051528;28;20070;-60
2023/07/07 08:12:01;;;;;;;3.72;2.33;;;;;;;21.93;54.27;100532.09;5050526;28;20120;-60
2023/07/07 08:14:30;;;;;;;4.43;2.60;;;;;;;22.09;53.87;100533.22;5051822;28;20033;-57
2023/07/07 08:16:58;;;;;;;6.90;2.85;;;;;;;22.24;55.47;100528.09;5051538;28;20101;-58
2023/07/07 08:19:24;;;;;;;4.47;2.50;;;;;;;22.36;52.17;100531.56;5051387;28;20175;-61
2023/07/07 08:21:49;;;;;;;4.38;2.50;;;;;;;22.57;52.66;100526.50;5051486;28;20048;-61
2023/07/07 08:24:15;;;;;;;5.18;2.65;;;;;;;22.59;51.24;100527.09;5051696;28;20033;-61
2023/07/07 08:26:41;;;;;;;4.85;2.78;;;;;;;22.71;51.06;100528.66;5051665;28;20123;-60
2023/07/07 08:29:06;;;;;;;5.75;3.28;;;;;;;22.84;51.92;100522.06;5051305;28;20060;-61
2023/07/07 08:31:32;;;;;;;6.50;3.40;;;;;;;22.99;50.92;100530.47;5051430;28;20525;-61
2023/07/07 08:33:58;;;;;;;7.47;3.28;;;;;;;23.11;50.09;100521.41;5051527;28;20230;-60
2023/07/07 08:36:23;;;;;;;5.72;2.92;;;;;;;23.24;51.55;100530.03;5051441;28;20052;-60
2023/07/07 08:38:49;;;;;;;4.85;2.38;;;;;;;23.35;49.81;100522.03;5051170;28;20033;-60
2023/07/07 08:41:14;;;;;;;5.30;3.20;;;;;;;23.49;49.83;100520.59;5051485;28;20090;-60
2023/07/07 08:43:40;;;;;;;6.32;2.95;;;;;;;23.59;49.48;100522.63;5051400;28;20041;-60
2023/07/07 08:46:36;;;;;;;4.85;2.88;;;;;;;23.89;49.90;100519.50;5051343;28;20037;-60
2023/07/07 08:49:23;;;;;;;9.20;2.95;;;;;;;23.92;47.45;100514.34;5051168;28;20033;-60
2023/07/07 08:52:15;;;;;;;5.22;2.85;;;;;;;24.27;48.44;100524.81;5051574;28;20398;-61
2023/07/07 08:55:00;;;;;;;8.13;3.00;;;;;;;24.36;47.12;100526.00;5044374;28;20575;-60
2023/07/07 08:57:30;;;;;;;9.57;3.38;;;;;;;24.44;47.41;100519.25;5051293;28;20386;-61
2023/07/07 09:00:24;;;;;;;6.20;2.90;;;;;;;24.73;46.97;100518.97;5050912;28;20033;-60
2023/07/07 09:03:24;;;;;;;11.25;3.47;;;;;;;24.88;47.39;100517.19;5051324;28;20089;-57
2023/07/07 09:06:06;;;;;;;5.60;2.83;;;;;;;25.03;45.90;100513.72;5051294;28;20082;-59
2023/07/07 09:08:45;;;;;;;6.85;3.28;;;;;;;25.33;45.92;100517.78;5053376;28;20116;-58
2023/07/07 09:11:46;;;;;;;6.03;3.10;;;;;;;25.35;44.64;100513.69;5054989;28;20033;-58
2023/07/07 09:14:13;;;;;;;6.95;3.55;;;;;;;25.67;44.61;100510.84;5033450;28;20067;-58
2023/07/07 09:16:42;;;;;;;8.40;3.35;;;;;;;25.93;44.46;100503.59;5054811;28;20041;-59
2023/07/07 09:19:15;;;;;;;4.03;3.10;;;;;;;26.05;43.39;100499.81;5054438;28;20043;-59
2023/07/07 09:21:55;;;;;;;7.97;3.25;;;;;;;26.31;43.08;100501.50;5054604;28;20043;-60
2023/07/07 09:24:29;;;;;;;6.47;3.25;;;;;;;26.32;42.95;100494.94;5054807;28;20486;-58
2023/07/07 09:27:02;;;;;;;7.68;3.30;;;;;;;26.44;41.53;100492.78;5053357;28;20037;-60
2023/07/07 09:29:30;;;;;;;6.03;3.38;;;;;;;26.65;43.04;100493.59;5053255;28;20036;-60
2023/07/07 09:32:01;;;;;;;7.55;3.80;;;;;;;26.93;41.91;100489.50;5036834;28;20045;-59
2023/07/07 09:34:26;;;;;;;9.10;3.90;;;;;;;27.06;39.84;100488.16;5053317;28;20458;-58
2023/07/07 09:37:12;;;;;;;5.30;3.28;;;;;;;27.09;41.56;100490.31;5053577;28;20037;-58
2023/07/07 09:39:40;;;;;;;9.27;4.03;;;;;;;27.06;41.20;100482.69;5054289;28;20037;-58
2023/07/07 09:42:38;;;;;;;5.97;3.40;;;;;;;27.62;40.24;100485.19;5054479;28;20090;-57
2023/07/07 09:45:25;;;;;;;7.35;4.05;;;;;;;27.70;39.51;100483.81;5054634;28;20056;-58
2023/07/07 09:48:18;;;;;;;7.40;3.67;;;;;;;27.83;39.89;100478.56;5054354;28;20075;-58
2023/07/07 09:51:03;;;;;;;5.47;3.17;;;;;;;28.17;38.51;100471.50;5054143;28;20576;-59
2023/07/07 09:53:32;;;;;;;9.10;4.03;;;;;;;28.23;40.63;100468.44;5054394;28;20032;-58
2023/07/07 09:55:58;;;;;;;7.47;4.07;;;;;;;28.66;38.99;100474.16;5054301;28;20033;-58
2023/07/07 09:58:31;;;;;;;7.95;3.78;;;;;;;28.61;40.02;100464.03;5053942;28;20098;-57
2023/07/07 10:01:00;;;;;;;7.30;3.65;;;;;;;28.95;38.74;100465.13;5054148;28;20029;-58
2023/07/07 10:03:32;;;;;;;5.78;3.47;;;;;;;28.95;36.33;100465.13;5054098;28;20481;-57
2023/07/07 10:06:01;;;;;;;10.55;4.10;;;;;;;29.28;36.53;100461.47;5053988;28;20120;-59
2023/07/07 10:08:27;;;;;;;11.85;5.28;;;;;;;29.40;38.35;100464.59;5053832;28;20120;-58
2023/07/07 10:11:21;;;;;;;6.72;3.78;;;;;;;29.63;36.73;100456.69;5054017;28;20037;-58
2023/07/07 10:13:48;;;;;;;8.85;4.13;;;;;;;29.73;36.74;100454.63;5053907;28;20037;-59
2023/07/07 10:16:30;;;;;;;10.02;4.32;;;;;;;29.69;36.40;100461.00;5053780;28;20041;-64
2023/07/07 10:19:08;;;;;;;6.90;3.92;;;;;;;30.12;34.17;100450.75;5053478;28;20040;-65
2023/07/07 10:21:34;;;;;;;8.98;4.60;;;;;;;30.54;33.45;100449.00;5053739;28;20045;-64
2023/07/07 10:23:59;;;;;;;7.57;4.00;;;;;;;30.78;32.43;100454.38;5053505;28;20106;-65
2023/07/07 10:26:25;;;;;;;8.13;3.72;;;;;;;30.88;33.28;100447.84;5053618;28;20044;-66
2023/07/07 10:28:54;;;;;;;6.47;3.55;;;;;;;30.74;33.14;100445.09;5053385;28;20033;-64
2023/07/07 10:31:22;;;;;;;8.13;4.03;;;;;;;31.14;32.99;100440.75;5053604;28;20091;-64
2023/07/07 10:33:51;;;;;;;7.80;4.35;;;;;;;31.40;32.91;100438.31;5053566;28;20040;-64
2023/07/07 10:36:26;;;;;;;7.95;4.22;;;;;;;31.61;31.78;100449.69;5053435;28;20045;-65
2023/07/07 10:38:55;;;;;;;7.47;3.67;;;;;;;31.98;30.78;100445.03;5051855;28;20044;-65
2023/07/07 10:41:21;;;;;;;9.85;4.55;;;;;;;31.93;31.03;100443.22;5053430;28;20020;-66
2023/07/07 10:43:46;;;;;;;9.80;4.20;;;;;;;32.26;30.80;100442.97;5053337;28;20041;-65
2023/07/07 10:46:12;;;;;;;7.97;4.03;;;;;;;32.25;30.11;100442.16;5053257;28;20056;-65
2023/07/07 10:48:43;;;;;;;11.73;4.07;;;;;;;32.51;29.20;100439.63;5053009;28;20033;-66
2023/07/07 10:51:15;;;;;;;8.55;4.13;;;;;;;32.71;29.58;100442.97;5053188;28;20486;-65
2023/07/07 10:53:50;;;;;;;10.20;4.47;;;;;;;32.62;29.78;100431.91;5053317;28;20033;-65
2023/07/07 10:56:27;;;;;;;11.03;4.70;;;;;;;33.02;30.16;100434.69;5053242;28;20048;-65
2023/07/07 10:59:09;;;;;;;9.57;4.82;;;;;;;33.67;30.12;100431.97;5052863;28;20068;-66
2023/07/07 11:01:57;;;;;;;9.07;4.35;;;;;;;33.71;29.63;100435.72;5053079;28;20094;-65
2023/07/07 11:05:01;;;;;;;6.97;4.18;;;;;;;34.08;28.70;100427.13;5052948;28;20024;-65
2023/07/07 11:07:36;;;;;;;9.65;4.50;;;;;;;34.15;26.94;100431.00;5034645;28;20037;-65
2023/07/07 11:10:10;;;;;;;8.82;4.53;;;;;;;34.46;26.54;100424.50;5052531;28;20482;-67
2023/07/07 11:12:54;;;;;;;8.50;4.70;;;;;;;34.59;26.31;100420.72;5052808;28;20375;-67
2023/07/07 11:15:35;;;;;;;8.82;4.13;;;;;;;34.90;25.64;100411.34;5052593;28;20060;-66
2023/07/07 11:18:32;;;;;;;10.10;4.50;;;;;;;35.23;24.33;100409.56;5052809;28;20078;-65
2023/07/07 11:21:25;;;;;;;8.43;4.47;;;;;;;35.16;24.33;100412.03;5052493;28;20513;-67
2023/07/07 11:24:03;;;;;;;10.45;4.90;;;;;;;35.17;23.33;100399.81;5052137;28;20033;-66
2023/07/07 11:26:55;;;;;;;10.32;4.93;;;;;;;35.68;23.32;100397.88;5049728;28;20033;-64
2023/07/07 11:29:46;;;;;;;20.65;5.80;;;;;;;35.17;22.89;100399.81;5043606;28;21375;-66
2023/07/07 11:32:37;;;;;;;12.27;5.15;;;;;;;35.74;24.49;100399.28;5051768;28;20127;-65
2023/07/07 11:35:48;;;;;;;10.27;4.65;;;;;;;36.18;24.72;100388.63;5050353;28;20065;-64
2023/07/07 11:38:34;;;;;;;9.27;4.68;;;;;;;36.20;23.95;100394.66;5050273;28;20037;-64
2023/07/07 11:41:23;;;;;;;10.55;5.68;;;;;;;36.42;23.04;100387.91;5051675;28;20432;-66
2023/07/07 11:44:21;;;;;;;12.48;5.60;;;;;;;36.04;21.38;100383.38;5048784;28;20037;-65
2023/07/07 11:47:17;;;;;;;11.18;5.10;;;;;;;36.50;21.97;100378.69;5049069;28;20090;-64
2023/07/07 11:49:42;;;;;;;12.85;5.50;;;;;;;36.19;21.49;100372.78;5049531;28;20029;-63
2023/07/07 11:52:11;;;;;;;9.70;5.67;;;;;;;36.61;21.49;100376.28;5051763;28;20033;-65
2023/07/07 11:55:20;;;;;;;12.30;5.18;;;;;;;35.95;22.06;100381.84;5051998;28;20541;-64
2023/07/07 11:58:05;;;;;;;10.90;5.35;;;;;;;35.56;19.93;100367.34;5019391;28;20056;-66
2023/07/07 12:00:43;;;;;;;11.05;5.65;;;;;;;35.25;20.47;100367.69;5050840;28;20120;-65
2023/07/07 12:03:30;;;;;;;11.48;5.45;;;;;;;36.19;21.22;100368.09;5045332;28;20033;-65
2023/07/07 12:06:01;;;;;;;10.73;5.07;;;;;;;36.65;21.45;100378.03;5049721;28;20041;-63
2023/07/07 12:09:19;;;;;;;11.50;5.47;;;;;;;35.02;21.02;100378.25;5040379;28;20623;-65
2023/07/07 12:12:19;;;;;;;11.43;4.85;;;;;;;35.51;19.87;100365.56;5033186;28;20056;-63
2023/07/07 12:15:19;;;;;;;10.07;5.28;;;;;;;36.29;21.41;100361.28;5051193;28;20563;-64
2023/07/07 12:18:30;;;;;;;9.98;4.53;;;;;;;35.90;20.31;100369.00;5050908;28;20532;-65
2023/07/07 12:21:07;;;;;;;10.32;5.10;;;;;;;36.39;19.41;100355.34;5018251;28;20045;-65
2023/07/07 12:23:37;;;;;;;10.48;4.97;;;;;;;36.94;21.16;100354.81;5051512;28;20043;-64
2023/07/07 12:26:25;;;;;;;10.98;5.25;;;;;;;37.00;20.10;100354.56;5051025;28;20029;-63
2023/07/07 12:28:57;;;;;;;11.80;5.53;;;;;;;36.76;19.88;100352.56;5050797;28;20446;-64
2023/07/07 12:31:25;;;;;;;10.05;5.38;;;;;;;37.18;19.34;100355.94;5051273;28;20550;-65
2023/07/07 12:33:51;;;;;;;12.35;5.65;;;;;;;36.99;18.68;100348.22;5051143;28;20033;-65
2023/07/07 12:36:20;;;;;;;10.55;5.65;;;;;;;37.56;19.28;100352.75;5033650;28;20124;-65
2023/07/07 12:38:51;;;;;;;10.52;4.95;;;;;;;37.65;18.90;100355.38;5050253;28;20049;-64
2023/07/07 12:41:22;;;;;;;11.55;5.57;;;;;;;37.61;18.62;100348.91;5051114;28;20055;-65
2023/07/07 12:43:56;;;;;;;10.18;5.55;;;;;;;37.03;18.62;100345.53;5054344;28;20045;-64
2023/07/07 12:46:28;;;;;;;10.98;5.03;;;;;;;37.95;19.44;100347.50;5055334;28;20037;-64
2023/07/07 12:48:57;;;;;;;10.23;4.93;;;;;;;38.09;17.78;100335.97;5054527;28;20037;-65
2023/07/07 12:51:26;;;;;;;9.20;4.78;;;;;;;38.42;18.35;100339.28;5055210;28;20366;-65
2023/07/07 12:53:53;;;;;;;10.90;5.30;;;;;;;38.88;17.32;100334.06;5055255;28;20120;-65
2023/07/07 12:56:27;;;;;;;10.02;5.45;;;;;;;38.28;17.49;100333.34;5070203;28;20483;-64
2023/07/07 12:58:55;;;;;;;12.05;5.53;;;;;;;38.58;17.77;100327.31;5054456;28;20550;-65
2023/07/07 13:01:38;;;;;;;9.02;4.78;;;;;;;38.54;18.05;100330.03;5054917;28;20037;-64
2023/07/07 13:04:12;;;;;;;11.75;5.43;;;;;;;38.59;17.94;100326.16;5055092;28;20469;-64
2023/07/07 13:06:41;;;;;;;12.38;5.05;;;;;;;37.73;17.76;100326.63;5054260;28;20115;-63
2023/07/07 13:09:13;;;;;;;8.80;4.70;;;;;;;37.84;17.59;100316.66;5053948;28;20048;-64
2023/07/07 13:11:57;;;;;;;11.60;4.97;;;;;;;37.19;17.71;100315.91;5054898;28;20025;-65
2023/07/07 13:14:40;;;;;;;10.27;4.78;;;;;;;36.35;18.61;100319.13;5055040;28;20041;-66
2023/07/07 13:17:17;;;;;;;9.13;4.35;;;;;;;36.63;18.51;100312.94;5054599;28;20105;-65
2023/07/07 13:20:04;;;;;;;10.98;5.20;;;;;;;37.18;19.54;100308.75;5054123;28;20043;-65
2023/07/07 13:22:38;;;;;;;8.45;4.78;;;;;;;36.37;18.90;100308.50;5054829;28;20052;-65
2023/07/07 13:25:20;;;;;;;11.40;5.28;;;;;;;36.48;19.73;100299.75;5054922;28;20478;-64
2023/07/07 13:27:45;;;;;;;11.82;5.32;;;;;;;35.77;20.39;100296.09;5054768;28;20032;-66
2023/07/07 13:30:31;;;;;;;11.07;5.17;;;;;;;35.46;20.14;100293.78;5054074;28;20127;-65
2023/07/07 13:32:57;;;;;;;10.23;4.28;;;;;;;35.95;20.60;100298.72;5042242;28;20048;-66
2023/07/07 13:35:25;;;;;;;10.63;4.83;;;;;;;35.91;19.12;100300.56;5034782;28;20033;-65
2023/07/07 13:37:57;;;;;;;9.75;4.50;;;;;;;35.26;20.35;100305.63;5034625;28;20063;-65
2023/07/07 13:40:23;;;;;;;10.75;5.38;;;;;;;35.19;19.87;100300.63;5032610;28;20132;-66
2023/07/07 13:42:51;;;;;;;10.60;5.10;;;;;;;34.96;21.13;100300.16;5034699;28;20053;-65
2023/07/07 13:45:21;;;;;;;11.13;5.25;;;;;;;34.17;20.84;100290.56;5034580;28;20124;-65
2023/07/07 13:47:50;;;;;;;8.93;4.80;;;;;;;34.06;20.86;100288.50;5034276;28;20037;-66
2023/07/07 13:50:23;;;;;;;12.18;4.45;;;;;;;34.11;22.33;100280.84;5033479;28;20033;-66
2023/07/07 13:52:56;;;;;;;10.07;4.65;;;;;;;33.84;21.16;100281.97;5034167;28;20060;-64
2023/07/07 13:55:22;;;;;;;11.88;5.35;;;;;;;34.12;22.42;100276.13;5034223;28;20534;-65
2023/07/07 13:57:47;;;;;;;9.30;4.37;;;;;;;34.24;21.84;100279.81;5034211;28;20040;-67
2023/07/07 14:00:21;;;;;;;7.80;3.87;;;;;;;34.01;23.19;100275.66;5033423;28;20062;-66
2023/07/07 14:02:48;;;;;;;9.10;4.78;;;;;;;33.90;22.40;100275.16;5033924;28;20037;-66
2023/07/07 14:05:17;;;;;;;11.52;5.22;;;;;;;34.00;22.70;100274.84;5034113;28;20441;-66
2023/07/07 14:07:42;;;;;;;9.80;5.68;;;;;;;33.73;22.46;100262.22;5034098;28;20504;-66
2023/07/07 14:10:20;;;;;;;10.20;4.77;;;;;;;33.81;22.55;100265.28;5033738;28;20128;-66
2023/07/07 14:12:45;;;;;;;9.15;4.28;;;;;;;33.87;22.71;100267.53;5033937;28;20073;-65
2023/07/07 14:15:12;;;;;;;8.80;4.67;;;;;;;33.78;22.38;100265.91;5049071;28;20084;-65
2023/07/07 14:17:39;;;;;;;;;;;;;;;33.95;22.83;100268.69;5034359;28;20123;-65
2023/07/07 14:20:20;;;;;;;10.40;5.10;;;;;;;33.69;22.15;100254.91;5033516;28;20003;-66
2023/07/07 14:22:46;;;;;;;11.75;4.93;;;;;;;33.57;22.36;100252.78;5033665;28;20045;-66
2023/07/07 14:25:17;;;;;;;10.50;4.97;;;;;;;33.38;22.65;100246.78;5033678;28;20073;-65
2023/07/07 14:27:43;;;;;;;12.10;5.32;;;;;;;33.57;23.18;100255.56;5033635;28;20049;-66
2023/07/07 14:30:18;;;;;;;9.48;4.93;;;;;;;33.56;21.71;100253.94;5033283;28;20033;-65
2023/07/07 14:32:45;;;;;;;12.00;4.75;;;;;;;33.37;22.56;100236.88;5033455;28;20042;-66
2023/07/07 14:35:16;;;;;;;;;;;;;;;33.36;22.27;100249.06;5033922;28;20088;-66
2023/07/07 14:37:54;;;;;;;9.10;4.22;;;;;;;33.14;22.81;100248.09;5033519;28;20012;-66
2023/07/07 14:40:48;;;;;;;11.43;5.20;;;;;;;33.02;23.27;100239.66;5033135;28;20446;-66
2023/07/07 14:43:20;;;;;;;11.32;5.70;;;;;;;33.14;23.25;100247.28;5028620;28;20049;-66
2023/07/07 14:45:47;;;;;;;10.07;5.68;;;;;;;32.98;22.70;100249.69;5033198;28;20045;-66
2023/07/07 14:48:19;;;;;;;11.38;4.97;;;;;;;32.90;23.07;100236.72;5033295;28;20053;-66
2023/07/07 14:50:44;;;;;;;10.23;4.47;;;;;;;32.86;22.98;100244.81;5033118;28;20037;-66
2023/07/07 14:53:16;;;;;;;8.70;5.00;;;;;;;32.64;23.26;100234.69;5033301;28;20042;-66
2023/07/07 14:55:48;;;;;;;9.57;4.75;;;;;;;32.75;23.02;100237.16;5033036;28;20083;-66
2023/07/07 14:58:18;;;;;;;11.75;5.28;;;;;;;32.60;23.18;100235.63;5033075;28;20485;-65
2023/07/07 15:00:44;;;;;;;7.35;4.15;;;;;;;32.70;22.90;100231.78;5031625;28;20038;-65
2023/07/07 15:03:34;;;;;;;9.32;4.80;;;;;;;32.56;23.28;100229.97;5032905;28;20088;-65
2023/07/07 15:06:05;;;;;;;11.38;5.03;;;;;;;32.45;23.87;100230.59;5032084;28;20049;-65
2023/07/07 15:08:32;;;;;;;11.93;4.68;;;;;;;32.43;23.61;100228.16;5032733;28;20033;-65
2023/07/07 15:11:01;;;;;;;;;;;;;;;32.40;23.32;100243.38;5033153;28;20040;-65
2023/07/07 15:13:26;;;;;;;12.52;4.57;;;;;;;32.64;23.74;100234.69;5032756;28;20413;-65
2023/07/07 15:15:52;;;;;;;9.27;4.73;;;;;;;32.64;23.30;100225.59;5032545;28;20033;-65
2023/07/07 15:18:18;;;;;;;10.00;5.03;;;;;;;32.59;23.09;100232.06;5032554;28;20033;-65
2023/07/07 15:20:46;;;;;;;13.13;5.23;;;;;;;32.58;23.54;100227.69;5032543;28;20037;-65
2023/07/07 15:23:13;;;;;;;10.35;4.93;;;;;;;32.63;24.09;100226.75;5032610;28;20048;-65
2023/07/07 15:25:38;;;;;;;11.07;5.28;;;;;;;32.61;23.81;100227.06;5032481;28;20395;-65
2023/07/07 15:28:10;;;;;;;11.60;5.40;;;;;;;32.65;23.74;100228.03;5032668;28;20050;-65
2023/07/07 15:30:36;;;;;;;10.52;4.90;;;;;;;32.41;23.12;100224.91;5032289;28;20060;-65
2023/07/07 15:33:01;;;;;;;12.80;5.50;;;;;;;32.43;23.17;100221.84;5031474;28;20037;-66
2023/07/07 15:35:26;;;;;;;10.87;5.00;;;;;;;32.40;23.20;100220.50;5032596;28;20037;-65
2023/07/07 15:37:52;;;;;;;10.77;5.07;;;;;;;32.33;23.28;100220.16;5031251;28;20392;-66
2023/07/07 15:40:21;;;;;;;9.33;4.50;;;;;;;32.19;22.91;100223.00;5032272;28;20068;-66
2023/07/07 15:42:51;;;;;;;12.57;5.85;;;;;;;32.25;23.79;100220.91;5032346;28;20033;-66
2023/07/07 15:45:17;;;;;;;9.32;4.95;;;;;;;32.26;23.48;100208.75;5032528;28;20437;-66
2023/07/07 15:47:45;;;;;;;10.10;4.65;;;;;;;32.29;23.46;100217.22;5032523;28;20033;-65
2023/07/07 15:50:14;;;;;;;10.18;4.72;;;;;;;32.28;23.28;100209.28;5032039;28;20116;-65
2023/07/07 15:52:39;;;;;;;11.80;5.65;;;;;;;32.34;23.95;100208.84;5032179;28;20076;-65
2023/07/07 15:55:05;;;;;;;12.20;5.07;;;;;;;32.34;24.20;100206.09;5032232;28;20124;-65
2023/07/07 15:57:31;;;;;;;11.27;5.03;;;;;;;32.32;22.79;100205.53;5032111;28;20502;-66
2023/07/07 15:59:56;;;;;;;11.13;5.50;;;;;;;32.27;23.23;100202.13;5031909;28;20033;-65
2023/07/07 16:02:21;;;;;;;10.83;5.27;;;;;;;32.35;23.70;100199.44;5032103;28;20037;-65
2023/07/07 16:04:47;;;;;;;14.27;5.97;;;;;;;32.34;23.61;100196.97;5032253;28;20037;-65
2023/07/07 16:07:14;;;;;;;10.60;4.73;;;;;;;32.25;23.35;100190.63;5032173;28;20411;-65